Bryan, Texas
Current Conditions -  °F | °C
As of 11:55 AM on Friday 28 Nov 2014 (Local Time) from KCFD Reporting Station
Clear Clear  
Wind Chill: 67°   Ceiling: Unl
Heat Index: 67°   Visibility: 10mi
Dew Point: 52°   Wind: 13mph
Humidity: 60%   Direction: 190°S
Pressure: 30.26"   Gusts: 18mph
Location:  30.67°N, 96.37°W
Report Text: KCFD 281755Z AUTO 19011G16KT 10SM CLR 19/11 A3026 RMK AO2 T01930113 10194 20030
Loading
Personal Weather Stations






























Interactive Weather Map New forecast layout! Learn more

10-Day Weather Forecast

Advertisements
Track Severe Weather on mobile